Berkeley, CA

6:21 PM PST on December 19, 2014 (GMT -0800)
Alcatraz Ave | Change Station
CLOSE
Current Station
Personal Weather Station
Location: Oakland, CA
Elevation: 138 ft
Nearby Weather Stations

Elev 138 ft 37.85 °N, 122.26 °W | Updated 26 seconds ago

Overcast
Overcast
56.3 °F
Feels Like 56.3 °F
N
0.9
Wind Variable Wind from East
Gusts 1.6 mph

Today
High -- | Low -- °F
--% Chance of Precip.
Yesterday
High -- | Low -- °F
Precip. -- in
7:20 AM 4:52 PM
Waning Crescent, 5% visible
Pressure 30.14 in
Visibility 10.0 miles
Clouds Scattered Clouds 900 ft
Mostly Cloudy 1300 ft
Overcast 5000 ft
Dew Point 56 °F
Humidity 98%
Rainfall 0.75 in
Snow Depth Not available.
UV 0.0 out of 12
Pollen 2.00 out of 12
Air Quality Not available.
Flu Activity Not available.
METAR KOAK 200153Z 13007KT 10SM SCT009 BKN013 OVC050 13/12 A3013 RMK AO2 RAB07E17 SLP204 P0000 T01280122

More Conditions Fewer Conditions

Pressure 30.14 in
Visibility 10.0 miles
Clouds Scattered Clouds 900 ft
Mostly Cloudy 1300 ft
Overcast 5000 ft
Dew Point 56 °F
Humidity 98%
Rainfall 0.75 in
Snow Depth Not available.
UV 0.0 out of 12
Pollen 2.00 out of 12
Air Quality Not available.
Flu Activity Not available.
METAR KOAK 200153Z 13007KT 10SM SCT009 BKN013 OVC050 13/12 A3013 RMK AO2 RAB07E17 SLP204 P0000 T01280122

More Conditions Fewer Conditions

10-Day Weather Forecast

Almanac

Astronomy

Dec. 19, 2014 Rise Set
Actual Time
Civil Twilight
Nautical Twilight
Astronomical Twilight
Moon
Length of Visible Light
Length of Day
Tomorrow will be .
, % of the Moon is Illuminated

Today's Extremes

State Highs State Lows

Community

WunderPhotos

Upload Photos

1,779,113 photos uploaded!

WunderBlogs® & News

Nearby

Air Quality

  Air Quality AQ Index Pollutant
Not available.

Snow Depth

Station Depth Elevation

Earthquake Activity

City Distance Mag. Time & Date
Minimum magnitude displayed is 2.5.

Coastal Water Temperatures

Place Temperature

Nearby Weather Stations